createdAt,value
2018-04-24T00:00:35.211Z,12.00
2018-04-24T00:04:38.489Z,11.90
2018-04-24T00:08:41.020Z,11.90
2018-04-24T00:12:43.548Z,11.90
2018-04-24T00:16:46.086Z,11.80
2018-04-24T00:20:48.630Z,11.90
2018-04-24T00:24:51.150Z,11.80
2018-04-24T00:28:53.719Z,11.80
2018-04-24T00:32:57.018Z,11.80
2018-04-24T00:37:00.315Z,11.80
2018-04-24T00:41:02.855Z,11.70
2018-04-24T00:45:05.359Z,11.80
2018-04-24T00:49:07.886Z,11.80
2018-04-24T00:53:23.006Z,11.80
2018-04-24T00:57:26.315Z,11.80
2018-04-24T01:01:28.845Z,11.70
2018-04-24T01:05:32.135Z,11.80
2018-04-24T01:09:34.646Z,11.80
2018-04-24T01:13:37.183Z,11.80
2018-04-24T01:17:39.737Z,11.80
2018-04-24T01:21:42.288Z,11.80
2018-04-24T01:25:45.582Z,11.70
2018-04-24T01:29:48.104Z,11.70
2018-04-24T01:33:50.635Z,11.70
2018-04-24T01:37:53.165Z,11.70
2018-04-24T01:41:56.422Z,11.70
2018-04-24T01:45:58.956Z,11.70
2018-04-24T01:50:01.488Z,11.70
2018-04-24T01:54:04.004Z,11.70
2018-04-24T01:58:07.299Z,11.70
2018-04-24T02:02:10.602Z,11.70
2018-04-24T02:06:13.908Z,11.70
2018-04-24T02:10:16.442Z,11.60
2018-04-24T02:14:18.959Z,11.70
2018-04-24T02:18:21.499Z,11.70
2018-04-24T02:22:24.031Z,11.60
2018-04-24T02:26:26.596Z,11.60
2018-04-24T02:30:29.128Z,11.60
2018-04-24T02:34:31.640Z,11.60
2018-04-24T02:38:34.180Z,11.60
2018-04-24T02:42:36.715Z,11.50
2018-04-24T02:46:39.255Z,11.50
2018-04-24T02:50:42.557Z,11.40
2018-04-24T02:54:45.828Z,11.40
2018-04-24T02:58:48.362Z,11.30
2018-04-24T03:02:50.886Z,11.40
2018-04-24T03:06:53.464Z,11.40
2018-04-24T03:10:55.996Z,11.40
2018-04-24T03:14:59.275Z,11.30
2018-04-24T03:19:01.824Z,11.30
2018-04-24T03:23:04.363Z,11.30
2018-04-24T03:27:07.671Z,11.40
2018-04-24T03:31:10.977Z,11.40
2018-04-24T03:35:13.511Z,11.40
2018-04-24T03:39:16.052Z,11.40
2018-04-24T03:43:19.348Z,11.40
2018-04-24T03:47:22.651Z,11.40
2018-04-24T03:51:25.969Z,11.40
2018-04-24T03:55:28.486Z,11.30
2018-04-24T03:59:31.029Z,11.40
2018-04-24T04:03:34.329Z,11.30
2018-04-24T04:07:36.987Z,11.30
2018-04-24T04:11:40.194Z,11.30
2018-04-24T04:15:42.737Z,11.20
2018-04-24T04:19:57.136Z,11.30
2018-04-24T04:24:11.491Z,11.30
2018-04-24T04:28:14.869Z,11.20
2018-04-24T04:32:17.611Z,11.20
2018-04-24T04:36:20.896Z,11.10
2018-04-24T04:40:23.436Z,11.10
2018-04-24T04:44:25.971Z,11.10
2018-04-24T04:48:28.511Z,11.10
2018-04-24T04:52:31.023Z,11.10
2018-04-24T04:56:33.555Z,11.10
2018-04-24T05:00:36.867Z,11.10
2018-04-24T05:04:39.414Z,11.00
2018-04-24T05:08:41.948Z,11.10
2018-04-24T05:12:44.502Z,11.10
2018-04-24T05:16:47.795Z,11.20
2018-04-24T05:20:50.336Z,11.10
2018-04-24T05:24:52.867Z,11.20
2018-04-24T05:28:55.403Z,11.20
2018-04-24T05:32:57.935Z,11.30
2018-04-24T05:37:00.480Z,11.30
2018-04-24T05:41:03.013Z,11.40
2018-04-24T05:45:06.322Z,11.40
2018-04-24T05:49:08.919Z,11.30
2018-04-24T05:53:11.423Z,11.40
2018-04-24T05:57:13.955Z,11.50
2018-04-24T06:01:16.490Z,11.50
2018-04-24T06:05:19.022Z,11.60
2018-04-24T06:09:21.535Z,11.60
2018-04-24T06:13:24.064Z,11.60
2018-04-24T06:17:26.600Z,11.60
2018-04-24T06:21:29.128Z,11.60
2018-04-24T06:25:31.658Z,11.60
2018-04-24T06:29:34.940Z,11.60
2018-04-24T06:33:37.469Z,11.50
2018-04-24T06:37:40.015Z,11.60
2018-04-24T06:41:42.568Z,11.60
2018-04-24T06:45:45.100Z,11.70
2018-04-24T06:49:48.383Z,11.70
2018-04-24T06:53:50.919Z,11.70
2018-04-24T06:57:53.462Z,11.70
2018-04-24T07:01:55.991Z,11.80
2018-04-24T07:05:58.527Z,11.80
2018-04-24T07:10:01.823Z,11.90
2018-04-24T07:14:04.371Z,11.80
2018-04-24T07:18:06.902Z,11.90
2018-04-24T07:22:09.456Z,12.00
2018-04-24T07:26:11.988Z,12.00
2018-04-24T07:30:15.276Z,12.00
2018-04-24T07:34:17.807Z,11.90
2018-04-24T07:38:20.343Z,12.00
2018-04-24T07:42:22.884Z,11.90
2018-04-24T07:46:25.402Z,12.00
2018-04-24T07:50:27.951Z,12.00
2018-04-24T07:54:30.487Z,12.00
2018-04-24T07:58:33.024Z,12.00
2018-04-24T08:02:35.567Z,12.10
2018-04-24T08:06:38.859Z,12.10
2018-04-24T08:10:41.395Z,12.00
2018-04-24T08:14:43.926Z,12.10
2018-04-24T08:18:46.465Z,12.20
2018-04-24T08:22:49.662Z,12.20
2018-04-24T08:26:52.184Z,12.20
2018-04-24T08:30:54.758Z,12.20
2018-04-24T08:34:57.292Z,12.20
2018-04-24T08:39:00.710Z,12.30
2018-04-24T08:43:03.156Z,12.20
2018-04-24T08:47:05.667Z,12.30
2018-04-24T08:51:08.211Z,12.30
2018-04-24T08:55:10.761Z,12.30
2018-04-24T08:59:13.294Z,12.30
2018-04-24T09:03:15.827Z,12.30
2018-04-24T09:07:18.339Z,12.40
2018-04-24T09:11:20.891Z,12.40
2018-04-24T09:15:23.431Z,12.40
2018-04-24T09:19:26.312Z,12.40
2018-04-24T09:23:28.847Z,12.50
2018-04-24T09:27:31.367Z,12.50
2018-04-24T09:31:39.543Z,12.50
2018-04-24T09:35:42.088Z,12.40
2018-04-24T09:39:44.620Z,12.40
2018-04-24T09:43:47.162Z,12.40
2018-04-24T09:47:49.687Z,12.50
2018-04-24T09:51:52.222Z,12.50
2018-04-24T09:55:54.768Z,12.50
2018-04-24T09:59:57.303Z,12.50
2018-04-24T10:04:00.614Z,12.50
2018-04-24T10:08:03.905Z,12.40
2018-04-24T10:12:06.442Z,12.40
2018-04-24T10:16:08.976Z,12.50
2018-04-24T10:20:11.515Z,12.60
2018-04-24T10:24:14.055Z,12.60
2018-04-24T10:28:16.730Z,12.60
2018-04-24T10:32:19.271Z,12.60
2018-04-24T10:36:21.815Z,12.70
2018-04-24T10:40:25.118Z,12.90
2018-04-24T10:44:28.421Z,13.00
2018-04-24T10:48:31.702Z,13.10
2018-04-24T10:52:34.239Z,13.00
2018-04-24T10:56:36.814Z,13.10
2018-04-24T11:00:39.372Z,13.10
2018-04-24T11:04:41.902Z,13.10
2018-04-24T11:08:44.424Z,13.10
2018-04-24T11:12:46.966Z,13.10
2018-04-24T11:16:49.509Z,13.10
2018-04-24T11:20:52.051Z,13.30
2018-04-24T11:24:54.583Z,13.40
2018-04-24T11:28:57.881Z,13.70
2018-04-24T11:33:00.415Z,13.60
2018-04-24T11:37:02.958Z,13.80
2018-04-24T11:41:06.284Z,14.00
2018-04-24T11:45:08.828Z,13.90
2018-04-24T11:49:11.359Z,14.00
2018-04-24T11:53:13.892Z,14.00
2018-04-24T11:57:16.428Z,14.00
2018-04-24T12:01:18.963Z,14.00
2018-04-24T12:05:21.496Z,13.80
2018-04-24T12:09:24.016Z,13.80
2018-04-24T12:13:26.557Z,13.70
2018-04-24T12:17:29.863Z,13.80
2018-04-24T12:21:32.406Z,13.80
2018-04-24T12:25:34.941Z,13.90
2018-04-24T12:29:37.457Z,14.10
2018-04-24T12:33:39.993Z,14.30
2018-04-24T12:37:43.291Z,14.40
2018-04-24T12:41:46.591Z,14.40
2018-04-24T12:45:49.896Z,14.40
2018-04-24T12:49:53.180Z,14.40
2018-04-24T12:53:55.726Z,14.40
2018-04-24T12:57:58.259Z,14.50
2018-04-24T13:02:00.794Z,14.60
2018-04-24T13:06:03.327Z,14.80
2018-04-24T13:10:05.842Z,14.90
2018-04-24T13:14:08.383Z,15.00
2018-04-24T13:18:10.923Z,15.00
2018-04-24T13:22:13.455Z,15.00
2018-04-24T13:26:16.000Z,15.10
2018-04-24T13:30:18.515Z,15.00
2018-04-24T13:34:21.047Z,15.10
2018-04-24T13:38:23.591Z,15.00
2018-04-24T13:42:26.126Z,15.00
2018-04-24T13:46:28.667Z,14.90
2018-04-24T13:50:31.204Z,14.80
2018-04-24T13:54:33.735Z,14.80
2018-04-24T13:58:36.333Z,14.80
2018-04-24T14:02:38.862Z,14.70
2018-04-24T14:06:41.396Z,14.60
2018-04-24T14:10:43.954Z,14.60
2018-04-24T14:14:46.491Z,14.60
2018-04-24T14:18:49.796Z,14.60
2018-04-24T14:22:52.331Z,14.50
2018-04-24T14:26:54.873Z,14.50
2018-04-24T14:30:57.419Z,14.50
2018-04-24T14:34:59.967Z,14.50
2018-04-24T14:39:02.508Z,14.50
2018-04-24T14:43:05.811Z,14.50
2018-04-24T14:47:08.366Z,14.40
2018-04-24T14:51:10.912Z,14.40
2018-04-24T14:55:13.428Z,14.40
2018-04-24T14:59:15.971Z,14.40
2018-04-24T15:03:18.516Z,14.50
2018-04-24T15:07:21.048Z,14.40
2018-04-24T15:11:23.583Z,14.40
2018-04-24T15:15:26.431Z,14.40
2018-04-24T15:19:29.331Z,14.50
2018-04-24T15:23:31.883Z,14.60
2018-04-24T15:27:35.241Z,14.70
2018-04-24T15:31:38.476Z,14.70
2018-04-24T15:35:41.764Z,14.90
2018-04-24T15:39:44.304Z,14.80
2018-04-24T15:43:46.835Z,14.80
2018-04-24T15:47:49.373Z,14.90
2018-04-24T15:51:51.903Z,14.80
2018-04-24T15:55:54.416Z,14.90
2018-04-24T15:59:56.954Z,14.90
2018-04-24T16:03:59.515Z,15.00
2018-04-24T16:08:02.071Z,14.90
2018-04-24T16:12:04.606Z,15.00
2018-04-24T16:16:07.124Z,15.10
2018-04-24T16:20:09.664Z,15.20
2018-04-24T16:24:12.528Z,15.20
2018-04-24T16:28:15.012Z,15.20
2018-04-24T16:32:17.543Z,15.20
2018-04-24T16:36:20.060Z,15.30
2018-04-24T16:40:23.360Z,15.20
2018-04-24T16:44:26.688Z,15.20
2018-04-24T16:48:29.222Z,15.10
2018-04-24T16:52:31.760Z,15.10
2018-04-24T16:56:34.275Z,15.10
2018-04-24T17:00:36.880Z,15.10
2018-04-24T17:04:39.375Z,15.10
2018-04-24T17:08:41.915Z,15.00
2018-04-24T17:12:44.452Z,15.00
2018-04-24T17:16:47.743Z,15.00
2018-04-24T17:20:50.284Z,14.90
2018-04-24T17:24:52.831Z,15.00
2018-04-24T17:28:56.203Z,14.90
2018-04-24T17:32:58.750Z,14.90
2018-04-24T17:37:01.262Z,14.80
2018-04-24T17:41:03.802Z,14.80
2018-04-24T17:45:06.351Z,14.80
2018-04-24T17:49:08.886Z,14.70
2018-04-24T17:53:11.434Z,14.70
2018-04-24T17:57:14.033Z,14.70
2018-04-24T18:01:16.528Z,14.70
2018-04-24T18:05:19.075Z,14.70
2018-04-24T18:09:21.747Z,14.60
2018-04-24T18:13:24.288Z,14.60
2018-04-24T18:17:26.833Z,14.50
2018-04-24T18:21:29.399Z,14.50
2018-04-24T18:25:31.912Z,14.50
2018-04-24T18:29:34.451Z,14.50
2018-04-24T18:33:36.991Z,14.50
2018-04-24T18:37:42.964Z,14.40
2018-04-24T18:41:46.384Z,14.40
2018-04-24T18:45:48.907Z,14.40
2018-04-24T18:49:51.447Z,14.40
2018-04-24T18:53:54.753Z,14.30
2018-04-24T18:57:57.287Z,14.30
2018-04-24T19:01:59.855Z,14.30
2018-04-24T19:06:03.141Z,14.20
2018-04-24T19:10:05.691Z,14.20
2018-04-24T19:14:14.614Z,14.20
2018-04-24T19:18:17.147Z,14.20
2018-04-24T19:22:19.692Z,14.20
2018-04-24T19:26:22.991Z,14.20
2018-04-24T19:30:25.514Z,14.10
2018-04-24T19:34:28.077Z,14.20
2018-04-24T19:38:31.380Z,14.10
2018-04-24T19:42:34.696Z,14.10
2018-04-24T19:46:37.229Z,14.10
2018-04-24T19:50:39.758Z,14.10
2018-04-24T19:54:48.736Z,14.10
2018-04-24T19:58:51.267Z,14.00
2018-04-24T20:02:54.651Z,14.10
2018-04-24T20:06:58.564Z,14.00
2018-04-24T20:11:01.192Z,14.00
2018-04-24T20:15:03.878Z,14.00
2018-04-24T20:19:06.491Z,14.00
2018-04-24T20:23:09.112Z,14.00
2018-04-24T20:27:11.743Z,14.00
2018-04-24T20:31:19.127Z,13.90
2018-04-24T20:35:21.768Z,13.90
2018-04-24T20:39:24.311Z,13.90
2018-04-24T20:43:26.851Z,13.90
2018-04-24T20:47:29.436Z,13.90
2018-04-24T20:51:31.963Z,13.90
2018-04-24T20:55:35.271Z,13.80
2018-04-24T20:59:37.816Z,13.80
2018-04-24T21:03:41.007Z,13.80
2018-04-24T21:07:43.637Z,13.80
2018-04-24T21:11:46.919Z,13.80
2018-04-24T21:15:50.216Z,13.70
2018-04-24T21:19:52.826Z,13.80
2018-04-24T21:23:56.136Z,13.70
2018-04-24T21:27:58.679Z,13.70
2018-04-24T21:32:01.194Z,13.70
2018-04-24T21:36:03.736Z,13.70
2018-04-24T21:40:06.954Z,13.70
2018-04-24T21:44:09.512Z,13.60
2018-04-24T21:48:12.055Z,13.60
2018-04-24T21:52:14.796Z,13.60
2018-04-24T21:56:17.490Z,13.60
2018-04-24T22:00:21.513Z,13.50
2018-04-24T22:04:24.066Z,13.50
2018-04-24T22:08:26.607Z,13.50
2018-04-24T22:12:29.925Z,13.40
2018-04-24T22:16:33.205Z,13.40
2018-04-24T22:20:35.765Z,13.30
2018-04-24T22:24:38.300Z,13.30
2018-04-24T22:28:41.604Z,13.30
2018-04-24T22:32:44.915Z,13.30
2018-04-24T22:36:47.428Z,13.20
2018-04-24T22:40:49.962Z,13.30
2018-04-24T22:44:52.508Z,13.30
2018-04-24T22:48:55.083Z,13.20
2018-04-24T22:52:57.623Z,13.20
2018-04-24T22:57:00.904Z,13.20
2018-04-24T23:01:03.441Z,13.20
2018-04-24T23:05:05.983Z,13.20
2018-04-24T23:09:08.523Z,13.20
2018-04-24T23:13:23.027Z,13.20
2018-04-24T23:17:38.061Z,13.20
2018-04-24T23:21:40.099Z,13.20
2018-04-24T23:25:43.407Z,13.20
2018-04-24T23:33:56.347Z,13.30
2018-04-24T23:37:58.864Z,13.20
2018-04-24T23:42:01.401Z,13.30
2018-04-24T23:46:03.946Z,13.30
2018-04-24T23:50:06.495Z,13.30
2018-04-24T23:54:09.798Z,13.40
2018-04-24T23:58:13.090Z,13.50
